createdAt,value
2022-08-19T00:02:10.689Z,11.45
2022-08-19T00:04:38.102Z,11.60
2022-08-19T00:07:06.773Z,11.27
2022-08-19T00:09:33.871Z,11.13
2022-08-19T00:12:01.154Z,12.05
2022-08-19T00:14:28.602Z,11.35
2022-08-19T00:16:55.695Z,11.60
2022-08-19T00:19:24.090Z,10.80
2022-08-19T00:21:51.394Z,11.20
2022-08-19T00:24:18.060Z,12.43
2022-08-19T00:26:46.282Z,11.40
2022-08-19T00:29:15.350Z,11.38
2022-08-19T00:31:43.759Z,11.75
2022-08-19T00:34:12.785Z,11.07
2022-08-19T00:36:40.362Z,11.38
2022-08-19T00:39:07.360Z,11.23
2022-08-19T00:41:34.203Z,11.88
2022-08-19T00:44:15.157Z,11.68
2022-08-19T00:49:35.007Z,11.85
2022-08-19T00:52:07.740Z,10.73
2022-08-19T00:54:34.683Z,10.52
2022-08-19T00:57:05.609Z,10.68
2022-08-19T01:02:19.442Z,10.48
2022-08-19T01:04:45.998Z,10.32
2022-08-19T01:07:15.203Z,11.20
2022-08-19T01:09:46.848Z,11.07
2022-08-19T01:12:14.950Z,10.95
2022-08-19T01:14:41.999Z,10.88
2022-08-19T01:17:10.786Z,10.63
2022-08-19T01:19:43.605Z,10.27
2022-08-19T01:22:30.312Z,11.77
2022-08-19T01:25:00.354Z,10.57
2022-08-19T01:27:27.044Z,11.77
2022-08-19T01:29:57.480Z,10.85
2022-08-19T01:32:33.972Z,11.18
2022-08-19T01:35:02.917Z,10.00
2022-08-19T01:37:31.448Z,10.73
2022-08-19T01:39:58.670Z,11.07
2022-08-19T01:42:30.181Z,10.77
2022-08-19T01:44:57.869Z,11.30
2022-08-19T01:47:26.101Z,11.43
2022-08-19T01:49:52.918Z,11.00
2022-08-19T01:52:19.504Z,11.27
2022-08-19T01:54:46.107Z,11.75
2022-08-19T01:57:15.109Z,10.50
2022-08-19T01:59:43.784Z,11.23
2022-08-19T02:02:10.436Z,11.82
2022-08-19T02:04:39.073Z,12.75
2022-08-19T02:07:06.462Z,10.95
2022-08-19T02:09:36.624Z,12.30
2022-08-19T02:12:04.908Z,12.38
2022-08-19T02:14:31.499Z,11.85
2022-08-19T02:16:58.160Z,10.98
2022-08-19T02:19:24.770Z,10.75
2022-08-19T02:21:52.363Z,10.10
2022-08-19T02:24:18.961Z,11.20
2022-08-19T02:26:45.811Z,11.20
2022-08-19T02:29:12.471Z,11.35
2022-08-19T02:31:39.496Z,11.20
2022-08-19T02:34:06.194Z,10.75
2022-08-19T02:36:32.810Z,12.00
2022-08-19T02:38:59.765Z,12.38
2022-08-19T02:41:28.927Z,11.18
2022-08-19T02:44:30.246Z,11.95
2022-08-19T02:46:52.586Z,12.02
2022-08-19T02:49:19.880Z,12.00
2022-08-19T02:51:47.751Z,11.90
2022-08-19T02:54:15.618Z,12.50
2022-08-19T02:56:43.843Z,12.15
2022-08-19T02:59:11.269Z,11.98
2022-08-19T03:01:43.508Z,11.43
2022-08-19T03:04:13.692Z,11.90
2022-08-19T03:06:42.737Z,11.87
2022-08-19T03:09:10.654Z,12.30
2022-08-19T03:11:37.451Z,12.18
2022-08-19T03:14:05.924Z,13.63
2022-08-19T03:16:42.131Z,12.25
2022-08-19T03:19:08.782Z,12.05
2022-08-19T03:21:36.010Z,12.60
2022-08-19T03:24:06.419Z,12.57
2022-08-19T03:26:33.550Z,11.77
2022-08-19T03:29:05.501Z,13.57
2022-08-19T03:31:44.225Z,11.82
2022-08-19T03:34:19.556Z,13.70
2022-08-19T03:36:47.012Z,11.93
2022-08-19T03:39:14.252Z,12.00
2022-08-19T03:41:44.958Z,12.77
2022-08-19T03:44:21.824Z,11.88
2022-08-19T03:46:58.852Z,11.73
2022-08-19T03:49:28.221Z,12.43
2022-08-19T03:51:57.765Z,12.48
2022-08-19T03:54:26.094Z,11.57
2022-08-19T03:56:54.919Z,11.82
2022-08-19T03:59:30.199Z,12.63
2022-08-19T04:01:58.959Z,15.43
2022-08-19T04:04:29.008Z,15.73
2022-08-19T04:06:57.261Z,15.18
2022-08-19T04:09:24.100Z,14.40
2022-08-19T04:11:54.822Z,14.15
2022-08-19T04:14:27.325Z,14.23
2022-08-19T04:16:54.204Z,14.30
2022-08-19T04:19:24.311Z,14.85
2022-08-19T04:21:53.003Z,17.00
2022-08-19T04:24:22.426Z,15.75
2022-08-19T04:26:49.667Z,15.35
2022-08-19T04:29:25.666Z,14.02
2022-08-19T04:31:54.735Z,15.50
2022-08-19T04:34:23.272Z,15.23
2022-08-19T04:36:51.938Z,15.38
2022-08-19T04:39:22.631Z,14.07
2022-08-19T04:42:07.822Z,15.43
2022-08-19T04:44:35.750Z,14.10
2022-08-19T04:47:10.927Z,14.90
2022-08-19T04:49:38.317Z,14.40
2022-08-19T04:52:04.971Z,15.07
2022-08-19T04:54:37.402Z,16.38
2022-08-19T04:57:11.302Z,15.70
2022-08-19T04:59:39.837Z,15.77
2022-08-19T05:02:09.620Z,16.35
2022-08-19T05:04:40.018Z,16.40
2022-08-19T05:07:08.735Z,19.15
2022-08-19T05:09:56.787Z,22.35
2022-08-19T05:12:22.222Z,19.27
2022-08-19T05:14:53.369Z,18.65
2022-08-19T05:17:29.031Z,19.20
2022-08-19T05:20:15.434Z,20.00
2022-08-19T05:22:44.615Z,25.05
2022-08-19T05:25:20.049Z,26.42
2022-08-19T05:27:47.139Z,29.50
2022-08-19T05:30:14.262Z,19.45
2022-08-19T05:32:41.530Z,25.75
2022-08-19T05:35:08.720Z,27.08
2022-08-19T05:37:35.359Z,24.80
2022-08-19T05:40:02.483Z,26.23
2022-08-19T05:42:29.202Z,23.52
2022-08-19T05:44:56.954Z,24.60
2022-08-19T05:47:24.156Z,29.08
2022-08-19T05:49:52.236Z,24.55
2022-08-19T05:52:25.408Z,23.33
2022-08-19T05:54:53.095Z,20.90
2022-08-19T05:57:20.030Z,20.23
2022-08-19T05:59:53.224Z,19.77
2022-08-19T06:02:26.513Z,20.38
2022-08-19T06:04:53.275Z,19.52
2022-08-19T06:07:22.908Z,20.27
2022-08-19T06:09:59.036Z,19.75
2022-08-19T06:12:29.693Z,21.52
2022-08-19T06:15:01.638Z,20.80
2022-08-19T06:17:31.617Z,22.42
2022-08-19T06:19:59.306Z,20.02
2022-08-19T06:22:26.096Z,21.30
2022-08-19T06:24:54.656Z,18.77
2022-08-19T06:27:22.143Z,20.20
2022-08-19T06:29:49.042Z,19.52
2022-08-19T06:32:19.265Z,19.65
2022-08-19T06:34:46.047Z,19.27
2022-08-19T06:37:13.158Z,18.10
2022-08-19T06:39:41.960Z,20.02
2022-08-19T06:42:12.305Z,20.30
2022-08-19T06:44:42.578Z,19.25
2022-08-19T06:47:14.962Z,17.70
2022-08-19T06:49:49.933Z,19.63
2022-08-19T06:52:17.071Z,18.92
2022-08-19T06:54:55.645Z,19.67
2022-08-19T06:57:24.146Z,19.27
2022-08-19T06:59:51.085Z,19.33
2022-08-19T07:04:44.936Z,18.45
2022-08-19T07:07:19.928Z,15.88
2022-08-19T07:09:57.990Z,17.52
2022-08-19T07:12:30.490Z,15.80
2022-08-19T07:14:59.012Z,15.15
2022-08-19T07:17:25.825Z,15.80
2022-08-19T07:19:54.199Z,14.70
2022-08-19T07:22:24.433Z,13.80
2022-08-19T07:24:52.598Z,12.90
2022-08-19T07:27:24.857Z,12.30
2022-08-19T07:29:57.400Z,12.20
2022-08-19T07:32:28.853Z,13.10
2022-08-19T07:34:56.530Z,10.52
2022-08-19T07:37:32.564Z,11.52
2022-08-19T07:40:00.107Z,13.32
2022-08-19T07:42:27.581Z,13.50
2022-08-19T07:44:54.177Z,11.70
2022-08-19T07:47:48.254Z,12.68
2022-08-19T07:50:10.717Z,12.20
2022-08-19T07:52:40.363Z,11.40
2022-08-19T07:55:40.190Z,12.05
2022-08-19T07:57:56.357Z,10.35
2022-08-19T08:00:24.438Z,10.25
2022-08-19T08:02:52.234Z,11.88
2022-08-19T08:08:34.152Z,12.75
2022-08-19T08:11:01.564Z,11.70
2022-08-19T08:13:32.440Z,13.52
2022-08-19T08:15:59.157Z,9.98
2022-08-19T08:18:28.078Z,12.18
2022-08-19T08:20:58.112Z,11.27
2022-08-19T08:23:30.202Z,13.23
2022-08-19T08:25:58.989Z,10.45
2022-08-19T08:28:29.294Z,12.68
2022-08-19T08:30:57.116Z,9.70
2022-08-19T08:33:33.361Z,9.02
2022-08-19T08:36:11.911Z,8.90
2022-08-19T08:38:41.026Z,7.68
2022-08-19T08:41:23.717Z,7.90
2022-08-19T08:43:53.056Z,7.72
2022-08-19T08:46:32.638Z,9.75
2022-08-19T08:49:21.482Z,9.93
2022-08-19T08:52:01.769Z,9.00
2022-08-19T08:54:39.706Z,8.13
2022-08-19T08:57:13.316Z,7.45
2022-08-19T08:59:42.442Z,6.10
2022-08-19T09:02:09.790Z,7.07
2022-08-19T09:04:40.083Z,6.10
2022-08-19T09:07:36.042Z,5.65
2022-08-19T09:10:26.976Z,5.70
2022-08-19T09:13:27.145Z,5.53
2022-08-19T09:16:03.299Z,5.90
2022-08-19T09:18:43.933Z,7.40
2022-08-19T09:21:10.843Z,6.53
2022-08-19T09:23:38.086Z,6.22
2022-08-19T09:26:10.568Z,5.80
2022-08-19T09:28:38.344Z,6.10
2022-08-19T09:31:09.078Z,5.70
2022-08-19T09:33:35.780Z,6.40
2022-08-19T09:36:08.386Z,5.60
2022-08-19T09:38:36.668Z,5.20
2022-08-19T09:41:16.674Z,5.38
2022-08-19T09:43:53.098Z,5.25
2022-08-19T09:46:22.072Z,5.13
2022-08-19T09:51:24.416Z,4.63
2022-08-19T09:53:54.883Z,4.43
2022-08-19T09:56:25.642Z,5.10
2022-08-19T09:58:52.530Z,5.80
2022-08-19T10:01:22.319Z,5.30
2022-08-19T10:03:52.035Z,4.68
2022-08-19T10:06:19.691Z,4.72
2022-08-19T10:09:09.097Z,5.15
2022-08-19T10:11:39.978Z,6.60
2022-08-19T10:14:08.013Z,5.60
2022-08-19T10:16:39.466Z,4.82
2022-08-19T10:19:06.328Z,5.00
2022-08-19T10:21:35.320Z,4.80
2022-08-19T10:24:05.025Z,5.43
2022-08-19T10:26:37.082Z,5.07
2022-08-19T10:29:06.298Z,4.88
2022-08-19T10:32:01.215Z,5.50
2022-08-19T10:34:27.853Z,4.90
2022-08-19T10:37:00.614Z,5.15
2022-08-19T10:39:30.871Z,5.40
2022-08-19T10:41:58.523Z,4.90
2022-08-19T10:44:31.978Z,5.05
2022-08-19T10:47:00.008Z,5.38
2022-08-19T10:49:26.811Z,5.13
2022-08-19T10:52:18.658Z,4.70
2022-08-19T10:55:08.216Z,4.38
2022-08-19T11:00:24.259Z,4.45
2022-08-19T11:02:51.778Z,5.18
2022-08-19T11:05:19.318Z,4.60
2022-08-19T11:07:46.543Z,4.32
2022-08-19T11:10:21.604Z,4.30
2022-08-19T11:12:49.141Z,4.45
2022-08-19T11:15:16.402Z,5.35
2022-08-19T11:17:44.418Z,5.30
2022-08-19T11:20:13.741Z,5.25
2022-08-19T11:22:41.860Z,5.50
2022-08-19T11:25:10.840Z,6.47
2022-08-19T11:27:42.744Z,6.38
2022-08-19T11:30:13.505Z,5.93
2022-08-19T11:32:45.673Z,6.20
2022-08-19T11:35:15.488Z,6.82
2022-08-19T11:37:42.352Z,5.75
2022-08-19T11:40:10.022Z,5.90
2022-08-19T11:42:58.627Z,5.50
2022-08-19T11:45:27.134Z,5.70
2022-08-19T11:47:54.653Z,6.15
2022-08-19T11:50:21.470Z,5.97
2022-08-19T11:52:48.410Z,6.30
2022-08-19T11:55:15.299Z,6.22
2022-08-19T11:57:43.765Z,5.95
2022-08-19T12:00:13.174Z,5.57
2022-08-19T12:02:40.385Z,5.40
2022-08-19T12:05:12.341Z,5.53
2022-08-19T12:07:40.721Z,6.00
2022-08-19T12:10:08.408Z,5.75
2022-08-19T12:12:35.312Z,5.75
2022-08-19T12:15:03.035Z,5.53
2022-08-19T12:17:29.899Z,5.50
2022-08-19T12:19:56.493Z,6.10
2022-08-19T12:22:23.375Z,5.88
2022-08-19T12:24:51.859Z,6.40
2022-08-19T12:27:32.234Z,6.35
2022-08-19T12:30:10.029Z,5.70
2022-08-19T12:32:37.247Z,5.85
2022-08-19T12:35:05.052Z,5.53
2022-08-19T12:37:33.190Z,5.53
2022-08-19T12:40:00.210Z,6.45
2022-08-19T12:42:26.981Z,6.05
2022-08-19T12:44:53.899Z,5.80
2022-08-19T12:47:21.406Z,5.88
2022-08-19T12:49:53.597Z,5.65
2022-08-19T12:52:23.216Z,5.43
2022-08-19T12:54:54.402Z,5.40
2022-08-19T12:57:31.975Z,5.15
2022-08-19T13:00:11.662Z,5.10
2022-08-19T13:02:44.874Z,4.75
2022-08-19T13:05:15.235Z,4.95
2022-08-19T13:10:12.851Z,4.90
2022-08-19T13:12:41.886Z,5.07
2022-08-19T13:15:10.716Z,4.95
2022-08-19T13:17:39.240Z,4.87
2022-08-19T13:20:08.938Z,5.10
2022-08-19T13:22:38.933Z,4.40
2022-08-19T13:25:07.425Z,5.18
2022-08-19T13:27:34.646Z,5.05
2022-08-19T13:30:20.455Z,4.53
2022-08-19T13:33:05.652Z,4.15
2022-08-19T13:35:32.360Z,4.65
2022-08-19T13:37:59.039Z,4.30
2022-08-19T13:40:27.384Z,4.55
2022-08-19T13:42:56.191Z,4.80
2022-08-19T13:45:25.659Z,3.83
2022-08-19T13:47:59.199Z,4.40
2022-08-19T13:50:32.377Z,3.80
2022-08-19T13:52:59.836Z,3.78
2022-08-19T13:55:27.890Z,3.90
2022-08-19T13:57:57.488Z,3.70
2022-08-19T14:00:27.233Z,3.90
2022-08-19T14:02:56.787Z,3.88
2022-08-19T14:05:25.510Z,3.95
2022-08-19T14:07:52.604Z,3.70
2022-08-19T14:10:20.119Z,4.07
2022-08-19T14:12:47.481Z,4.07
2022-08-19T14:15:15.009Z,3.83
2022-08-19T14:17:43.781Z,4.90
2022-08-19T14:20:18.337Z,5.03
2022-08-19T14:22:47.064Z,5.15
2022-08-19T14:25:16.958Z,4.03
2022-08-19T14:27:43.906Z,4.35
2022-08-19T14:30:13.494Z,4.00
2022-08-19T14:32:40.304Z,3.90
2022-08-19T14:35:08.461Z,4.20
2022-08-19T14:37:37.234Z,4.20
2022-08-19T14:40:14.273Z,5.57
2022-08-19T14:42:41.940Z,3.80
2022-08-19T14:45:09.536Z,3.83
2022-08-19T14:47:36.426Z,3.83
2022-08-19T14:50:18.306Z,3.40
2022-08-19T14:52:47.403Z,3.17
2022-08-19T14:55:15.156Z,3.63
2022-08-19T14:57:42.935Z,5.20
2022-08-19T15:00:16.652Z,4.15
2022-08-19T15:02:46.419Z,5.93
2022-08-19T15:05:13.932Z,5.88
2022-08-19T15:07:41.989Z,4.50
2022-08-19T15:10:12.004Z,3.97
2022-08-19T15:12:43.687Z,4.22
2022-08-19T15:15:16.221Z,5.05
2022-08-19T15:17:54.577Z,5.18
2022-08-19T15:20:23.702Z,4.90
2022-08-19T15:22:50.800Z,4.90
2022-08-19T15:25:19.874Z,4.22
2022-08-19T15:27:47.186Z,5.38
2022-08-19T15:30:20.848Z,5.13
2022-08-19T15:32:49.203Z,6.18
2022-08-19T15:35:18.230Z,5.05
2022-08-19T15:37:46.083Z,5.68
2022-08-19T15:40:13.033Z,5.35
2022-08-19T15:42:42.507Z,5.20
2022-08-19T15:45:11.668Z,4.78
2022-08-19T15:47:39.302Z,4.93
2022-08-19T15:50:19.899Z,4.82
2022-08-19T15:55:33.501Z,3.97
2022-08-19T15:58:28.425Z,4.38
2022-08-19T16:01:20.250Z,4.05
2022-08-19T16:04:13.849Z,4.43
2022-08-19T16:06:54.581Z,4.03
2022-08-19T16:09:27.520Z,3.60
2022-08-19T16:12:02.026Z,3.08
2022-08-19T16:14:32.733Z,2.97
2022-08-19T16:16:59.862Z,3.03
2022-08-19T16:19:26.503Z,2.47
2022-08-19T16:21:55.022Z,2.53
2022-08-19T16:24:24.976Z,2.47
2022-08-19T16:26:51.847Z,2.33
2022-08-19T16:29:27.773Z,2.08
2022-08-19T16:32:02.927Z,2.03
2022-08-19T16:34:30.804Z,2.10
2022-08-19T16:36:57.735Z,2.00
2022-08-19T16:39:24.811Z,1.70
2022-08-19T16:41:51.703Z,1.70
2022-08-19T16:44:21.978Z,1.95
2022-08-19T16:46:57.307Z,1.83
2022-08-19T16:49:53.073Z,2.25
2022-08-19T16:52:14.928Z,1.60
2022-08-19T16:54:43.677Z,1.90
2022-08-19T16:57:12.006Z,1.80
2022-08-19T16:59:48.254Z,1.85
2022-08-19T17:02:21.922Z,2.00
2022-08-19T17:04:58.075Z,1.90
2022-08-19T17:07:29.527Z,1.77
2022-08-19T17:10:00.795Z,1.70
2022-08-19T17:12:30.579Z,1.90
2022-08-19T17:15:02.840Z,1.50
2022-08-19T17:20:00.340Z,1.52
2022-08-19T17:22:27.276Z,1.42
2022-08-19T17:24:56.163Z,1.42
2022-08-19T17:29:53.149Z,1.33
2022-08-19T17:32:25.125Z,1.55
2022-08-19T17:34:54.157Z,1.42
2022-08-19T17:37:21.180Z,1.33
2022-08-19T17:39:47.860Z,1.65
2022-08-19T17:42:14.668Z,1.40
2022-08-19T17:44:41.277Z,1.52
2022-08-19T17:47:07.889Z,1.33
2022-08-19T17:49:34.804Z,1.63
2022-08-19T17:52:09.424Z,1.20
2022-08-19T17:54:36.959Z,1.38
2022-08-19T17:57:03.619Z,1.30
2022-08-19T17:59:30.422Z,1.70
2022-08-19T18:01:57.763Z,1.10
2022-08-19T18:04:26.253Z,1.30
2022-08-19T18:06:54.929Z,1.60
2022-08-19T18:09:41.370Z,1.10
2022-08-19T18:12:10.376Z,1.23
2022-08-19T18:14:39.356Z,1.13
2022-08-19T18:17:09.940Z,1.10
2022-08-19T18:19:42.245Z,1.20
2022-08-19T18:22:22.616Z,1.27
2022-08-19T18:24:49.798Z,1.20
2022-08-19T18:27:16.655Z,1.25
2022-08-19T18:29:43.524Z,1.30
2022-08-19T18:32:13.515Z,1.30
2022-08-19T18:34:43.078Z,1.20
2022-08-19T18:37:10.824Z,1.40
2022-08-19T18:39:56.040Z,1.50
2022-08-19T18:42:41.912Z,1.10
2022-08-19T18:45:28.802Z,1.30
2022-08-19T18:48:27.945Z,0.93
2022-08-19T18:50:59.474Z,1.08
2022-08-19T18:53:28.521Z,1.20
2022-08-19T18:55:55.759Z,1.25
2022-08-19T18:58:34.342Z,1.30
2022-08-19T19:01:10.728Z,1.17
2022-08-19T19:03:45.724Z,1.30
2022-08-19T19:06:21.766Z,1.00
2022-08-19T19:08:50.411Z,1.08
2022-08-19T19:11:24.349Z,1.17
2022-08-19T19:13:51.401Z,1.30
2022-08-19T19:16:22.426Z,1.20
2022-08-19T19:18:54.207Z,1.05
2022-08-19T19:21:25.583Z,1.20
2022-08-19T19:23:55.799Z,1.00
2022-08-19T19:26:23.076Z,1.20
2022-08-19T19:28:51.468Z,1.17
2022-08-19T19:31:26.660Z,1.42
2022-08-19T19:33:56.499Z,1.23
2022-08-19T19:36:23.996Z,1.20
2022-08-19T19:38:51.280Z,1.20
2022-08-19T19:41:27.125Z,1.20
2022-08-19T19:44:23.063Z,1.10
2022-08-19T19:46:42.711Z,1.20
2022-08-19T19:49:10.406Z,1.20
2022-08-19T19:51:41.190Z,1.10
2022-08-19T19:56:35.413Z,1.10
2022-08-19T19:59:03.822Z,1.30
2022-08-19T20:01:30.602Z,1.20
2022-08-19T20:03:59.068Z,1.30
2022-08-19T20:06:29.022Z,1.00
2022-08-19T20:09:08.284Z,1.20
2022-08-19T20:11:54.469Z,1.35
2022-08-19T20:14:24.655Z,1.38
2022-08-19T20:16:52.483Z,1.40
2022-08-19T20:19:24.213Z,1.20
2022-08-19T20:21:51.542Z,1.40
2022-08-19T20:24:22.469Z,1.15
2022-08-19T20:29:38.127Z,1.40
2022-08-19T20:32:06.760Z,1.23
2022-08-19T20:34:33.863Z,1.10
2022-08-19T20:37:00.521Z,1.05
2022-08-19T20:39:27.174Z,1.33
2022-08-19T20:41:56.428Z,1.50
2022-08-19T20:44:25.332Z,1.33
2022-08-19T20:46:55.399Z,1.08
2022-08-19T20:49:27.507Z,1.35
2022-08-19T20:54:21.637Z,1.38
2022-08-19T20:56:48.264Z,1.40
2022-08-19T20:59:14.985Z,1.70
2022-08-19T21:01:41.650Z,1.17
2022-08-19T21:04:08.298Z,1.70
2022-08-19T21:06:34.938Z,1.55
2022-08-19T21:09:01.570Z,1.58
2022-08-19T21:11:28.179Z,1.33
2022-08-19T21:13:54.892Z,1.30
2022-08-19T21:16:21.654Z,1.50
2022-08-19T21:18:48.670Z,1.33
2022-08-19T21:21:15.893Z,1.33
2022-08-19T21:23:44.097Z,1.30
2022-08-19T21:26:11.103Z,1.17
2022-08-19T21:28:37.734Z,1.40
2022-08-19T21:31:06.509Z,1.63
2022-08-19T21:33:33.678Z,1.40
2022-08-19T21:36:00.439Z,1.30
2022-08-19T21:38:27.525Z,1.38
2022-08-19T21:40:54.960Z,1.42
2022-08-19T21:43:22.094Z,1.40
2022-08-19T21:45:50.953Z,1.50
2022-08-19T21:48:18.402Z,1.48
2022-08-19T21:50:48.242Z,1.50
2022-08-19T21:53:19.152Z,1.40
2022-08-19T21:55:53.166Z,1.13
2022-08-19T21:58:28.150Z,1.20
2022-08-19T22:00:58.272Z,1.20
2022-08-19T22:03:25.952Z,1.20
2022-08-19T22:05:52.920Z,1.40
2022-08-19T22:08:19.551Z,1.30
2022-08-19T22:10:46.573Z,1.17
2022-08-19T22:13:14.589Z,1.35
2022-08-19T22:15:42.488Z,1.27
2022-08-19T22:18:09.427Z,1.77
2022-08-19T22:20:36.552Z,1.30
2022-08-19T22:23:06.068Z,1.58
2022-08-19T22:25:40.668Z,1.48
2022-08-19T22:28:11.112Z,1.50
2022-08-19T22:30:41.771Z,1.38
2022-08-19T22:33:12.514Z,1.63
2022-08-19T22:35:41.621Z,1.38
2022-08-19T22:38:09.481Z,1.40
2022-08-19T22:40:39.698Z,1.35
2022-08-19T22:43:19.746Z,1.40
2022-08-19T22:45:48.743Z,1.70
2022-08-19T22:48:18.060Z,1.40
2022-08-19T22:51:04.629Z,1.38
2022-08-19T22:53:32.687Z,1.95
2022-08-19T22:55:59.858Z,1.40
2022-08-19T22:58:28.291Z,1.38
2022-08-19T23:00:55.154Z,1.45
2022-08-19T23:03:22.613Z,1.40
2022-08-19T23:05:49.254Z,1.50
2022-08-19T23:08:19.498Z,1.42
2022-08-19T23:10:47.302Z,1.30
2022-08-19T23:13:17.320Z,1.92
2022-08-19T23:15:46.104Z,1.40
2022-08-19T23:18:13.839Z,1.65
2022-08-19T23:20:44.191Z,1.60
2022-08-19T23:23:13.090Z,1.50
2022-08-19T23:25:40.753Z,1.73
2022-08-19T23:28:26.013Z,1.63
2022-08-19T23:30:53.489Z,1.70
2022-08-19T23:33:50.821Z,1.50
2022-08-19T23:36:19.121Z,1.27
2022-08-19T23:38:48.086Z,1.73
2022-08-19T23:41:16.604Z,1.58
2022-08-19T23:43:44.501Z,1.70
2022-08-19T23:46:13.522Z,1.58
2022-08-19T23:48:40.893Z,1.58
2022-08-19T23:51:10.344Z,2.05
2022-08-19T23:53:39.290Z,1.60
2022-08-19T23:56:07.424Z,1.85
2022-08-19T23:58:34.907Z,2.03
